• Join FlightAware (Why Join?)
  • Login
  • US Flag 
10:25PM EST


 

Airport Tracker/Info


-or-


 

Live Flight TrackerFlight Track Log ✈ N469S ✈ 23-Apr-2013 ✈ KMQJ

Flight Track Log - Related Links

Times and Time Zones

All times are in EDT time to prevent confusion due to time zone crossing. See the N469S flight status page for this flight to view local times or setup timezone preferences in your user account.

Time Position Orientation Groundspeed Altitude Reporting Facility
EDT Latitude Longitude Course Direction KTS MPH feet Rate Location/Type
02:47PM 40.9747 -83.0392 244° Southwest 174 200 10,500  Level Cleveland Center
02:48PM 40.9525 -83.0933 242° Southwest 174 200 10,500  Level Cleveland Center
02:49PM 40.9325 -83.1503 245° Southwest 174 200 10,500  Level Cleveland Center
02:50PM 40.9103 -83.2097 244° Southwest 174 200 10,500  Level Cleveland Center
02:51PM 40.8903 -83.2639 244° Southwest 169 194 10,500  Level Cleveland Center
02:53PM 40.9091 -83.2077 244° Southwest  Level Estimated
02:53PM 40.8506 -83.3681 243° Southwest 166 191 10,500  Level Indianapolis Center
02:54PM 40.8303 -83.4222 244° Southwest 163 188 10,500  Level Indianapolis Center
02:55PM 40.8089 -83.4764 242° Southwest 164 189 10,500  Level Indianapolis Center
02:56PM 40.7867 -83.5364 244° Southwest 165 190 10,500  Level Indianapolis Center
02:57PM 40.7653 -83.5903 242° Southwest 164 189 10,500  Level Indianapolis Center
02:58PM 40.7447 -83.6461 244° Southwest 167 192 10,500  Level Indianapolis Center
02:59PM 40.7231 -83.7011 243° Southwest 168 193 10,500  Level Indianapolis Center
03:00PM 40.7014 -83.7561 243° Southwest 168 193 10,500  Level Indianapolis Center
03:01PM 40.6811 -83.8117 244° Southwest 167 192 10,500  Level Indianapolis Center
03:02PM 40.6600 -83.8669 243° Southwest 167 192 10,500  Level Indianapolis Center
03:03PM 40.6372 -83.9225 242° Southwest 170 196 10,500  Level Indianapolis Center
03:04PM 40.6136 -83.9872 244° Southwest 168 193 10,500  Level Indianapolis Center
03:05PM 40.5911 -84.0422 242° Southwest 168 193 10,500  Level Indianapolis Center
03:06PM 40.5694 -84.0986 243° Southwest 171 197 10,500  Level Indianapolis Center
03:08PM 40.5483 -84.1531 243° Southwest 168 193 10,500  Level Indianapolis Center
03:09PM 40.5272 -84.2092 244° Southwest 169 194 10,500  Level Indianapolis Center
03:10PM 40.5047 -84.2642 242° Southwest 169 194 10,500  Level Indianapolis Center
03:11PM 40.4828 -84.3178 242° Southwest 167 192 10,500  Level Indianapolis Center
03:12PM 40.4614 -84.3736 243° Southwest 169 194 10,500  Level Indianapolis Center
03:13PM 40.4364 -84.4378 243° Southwest 169 194 10,500  Level Indianapolis Center
03:14PM 40.4147 -84.4936 243° Southwest 169 194 10,500  Level Indianapolis Center
03:15PM 40.3919 -84.5492 242° Southwest 170 196 10,500  Level Indianapolis Center
03:16PM 40.3706 -84.6039 243° Southwest 170 196 10,500 -60 Level Indianapolis Center
03:17PM 40.3483 -84.6572 241° Southwest 167 192 10,400 -300 Descending Indianapolis Center
03:18PM 40.3264 -84.7142 243° Southwest 169 194 10,000 -240 Descending Indianapolis Center
03:19PM 40.3047 -84.7689 243° Southwest 170 196 10,000  Level Indianapolis Center
03:20PM 40.2803 -84.8294 242° Southwest 165 190 10,000  Level Indianapolis Center
03:21PM 40.2586 -84.8847 243° Southwest 166 191 10,000  Level Indianapolis Center
03:22PM 40.2375 -84.9394 243° Southwest 167 192 10,000  Level Indianapolis Center
03:23PM 40.2158 -84.9922 242° Southwest 166 191 10,000  Level Indianapolis Center
03:24PM 40.1939 -85.0461 242° Southwest 165 190 10,000  Level Indianapolis Center
03:25PM 40.1731 -85.0994 243° Southwest 165 190 10,000  Level Indianapolis Center
03:27PM 40.1387 -85.1560 237° Southwest  Level FlightAware Approximate
03:34PM 40.0168 -85.4595 244° Southwest  Level FlightAware Approximate
03:35PM 40.0005 -85.5036 244° Southwest  Level FlightAware Approximate
03:36PM 39.9842 -85.5478 244° Southwest  Level FlightAware Approximate
03:37PM 39.9585 -85.5723 244° Southwest  Level FlightAware Approximate
03:38PM 39.9423 -85.6165 244° Southwest  Level FlightAware Approximate
03:39PM 39.9260 -85.6607 244° Southwest  Level FlightAware Approximate
03:40PM 39.9098 -85.7048 244° Southwest  Level FlightAware Approximate
03:41PM 39.8935 -85.7489 244° Southwest  Level FlightAware Approximate
03:42PM 39.8773 -85.7930 244° Southwest  Level FlightAware Approximate
03:43PM 39.8610 -85.8370 244° Southwest  Level FlightAware Approximate
03:44PM 39.8403 -85.8764 218° Southwest  Level FlightAware Approximate
03:45PM 39.8333 -85.8833 218° Southwest  Level FlightAware Approximate
03:46PM 39.8435 -85.8971 218° Southwest  Level Estimated
03:47PM 39.8435 -85.8971 218° Southwest  Level Estimated
03:48PM 39.8435 -85.8971 218° Southwest  Level Estimated
03:49PM 39.8435 -85.8971 218° Southwest  Level Estimated
03:50PM 39.8435 -85.8971 218° Southwest  Level Estimated
03:51PM 39.8435 -85.8971 218° Southwest  Level Estimated